• Join FlightAware (Why Join?)
  • Login
  • US Flag 
03:23PM EDT


 

Airport Tracker/Info


-or-


 

Live Flight TrackerFlight Track Log ✈ N10CW ✈ 26-Dec-2013 ✈ KIGQ - KAPF

Flight Track Log - Related Links

Times and Time Zones

All times are in EST time to prevent confusion due to time zone crossing. See the N10CW flight status page for this flight to view local times or setup timezone preferences in your user account.

Time Position Orientation Groundspeed Altitude Reporting Facility
EST Latitude Longitude Course Direction KTS MPH feet Rate Location/Type
12:59PM 31.1547 -84.0603 159° South 245 282 15,400  Level Jacksonville Center
01:00PM 31.0883 -84.0303 159° South 250 288 15,400  Level Jacksonville Center
01:01PM 31.0239 -84.0006 158° South 250 288 15,400  Level Jacksonville Center
01:02PM 30.9572 -83.9706 159° South 250 288 15,400  Level Jacksonville Center
01:03PM 30.8928 -83.9408 158° South 250 288 15,400  Level Jacksonville Center
01:04PM 30.8303 -83.9111 158° South 250 288 15,400  Level Jacksonville Center
01:05PM 30.7658 -83.8839 160° South 250 288 15,400  Level Jacksonville Center
01:06PM 30.7014 -83.8542 158° South 250 288 15,500  Climbing Jacksonville Center
01:07PM 30.6369 -83.8222 157° South 250 288 15,500 -120 Level Jacksonville Center
01:08PM 30.5722 -83.7925 158° South 250 288 15,300 -300 Descending Jacksonville Center
01:09PM 30.5161 -83.7678 159° South 250 288 14,900 -180 Descending Jacksonville Center
01:10PM 30.4517 -83.7383 159° South 250 288 15,000  Climbing Jacksonville Center
01:11PM 30.3850 -83.7136 162° South 250 288 14,900  Descending Jacksonville Center
01:12PM 30.3225 -83.6892 161° South 250 288 15,000  Climbing Jacksonville Center
01:13PM 30.2600 -83.6597 158° South 250 288 14,900 -60 Descending Jacksonville Center
01:14PM 30.1956 -83.6353 162° South 250 288 14,900  Level Jacksonville Center
01:15PM 30.1308 -83.6083 160° South 250 288 14,900  Level Jacksonville Center
01:16PM 30.0683 -83.5789 158° South 250 288 14,900  Level Jacksonville Center
01:17PM 30.0058 -83.5544 161° South 250 288 14,900  Level Jacksonville Center
01:18PM 29.9433 -83.5278 160° South 250 288 15,000  Climbing Jacksonville Center
01:19PM 29.8808 -83.5011 160° South 250 288 14,900  Descending Jacksonville Center
01:20PM 29.8206 -83.4767 161° South 250 288 15,000  Climbing Jacksonville Center
01:21PM 29.7600 -83.4500 159° South 244 281 15,000  Level Jacksonville Center
01:22PM 29.7039 -83.4258 159° South 237 273 15,000  Level Jacksonville Center
01:23PM 29.6433 -83.4017 161° South 231 266 15,000 -60 Level Jacksonville Center
01:24PM 29.5850 -83.3775 160° South 231 266 14,900  Descending Jacksonville Center
01:25PM 29.5244 -83.3508 159° South 231 266 15,000  Climbing Jacksonville Center
01:26PM 29.4619 -83.3267 161° South 231 266 15,000  Level Jacksonville Center
01:27PM 29.3994 -83.3003 160° South 231 266 15,000  Level Jacksonville Center
01:28PM 29.3286 -83.2714 160° South 243 280 15,000  Level Jacksonville Center
01:29PM 29.2661 -83.2425 158° South 243 280 15,000  Level Jacksonville Center
01:30PM 29.2014 -83.2161 160° South 248 285 15,000  Level Jacksonville Center
01:31PM 29.1367 -83.1897 160° South 248 285 15,000  Level Jacksonville Center
01:32PM 29.0700 -83.1633 161° South 248 285 15,000  Level Jacksonville Center
01:33PM 29.0075 -83.1372 160° South 248 285 15,000  Level Jacksonville Center
01:34PM 28.9450 -83.1086 158° South 248 285 15,000  Level Jacksonville Center
01:35PM 28.8822 -83.0847 162° South 248 285 15,000  Level Jacksonville Center
01:36PM 28.8217 -83.0608 161° South 243 280 15,000  Level Jacksonville Center
01:37PM 28.7592 -83.0347 160° South 243 280 15,000  Level Jacksonville Center
01:38PM 28.7008 -83.0086 159° South 243 280 15,000  Level Jacksonville Center
01:39PM 28.6383 -82.9847 161° South 238 274 15,000  Level Jacksonville Center
01:40PM 28.5778 -82.9564 158° South 238 274 15,000  Level Jacksonville Center
01:41PM 28.5214 -82.9375 164° South 233 268 15,000  Level Jacksonville Center
01:42PM 28.4589 -82.9139 162° South 233 268 15,000  Level Jacksonville Center
01:43PM 28.3961 -82.8856 158° South 238 274 15,000 -60 Level Jacksonville Center
01:45PM 28.2311 -82.8175 160° South 244 281 14,900 -60 Descending Miami Center
01:46PM 28.1656 -82.7928 162° South 244 281 14,900  Level Miami Center
01:47PM 28.0997 -82.7658 160° South 244 281 14,900  Level Miami Center
01:48PM 28.0364 -82.7392 160° South 244 281 14,900  Level Miami Center
01:49PM 27.9686 -82.7119 160° South 244 281 14,900  Level Miami Center
01:50PM 27.9050 -82.6853 160° South 244 281 14,900  Level Miami Center
01:51PM 27.8367 -82.6700 169° South 244 281 14,900  Level Miami Center
01:52PM 27.7708 -82.6525 167° South 244 281 14,900  Level Miami Center
01:53PM 27.7067 -82.6378 169° South 244 281 14,900  Level Miami Center
01:54PM 27.6406 -82.6225 168° South 244 281 14,900  Level Miami Center
01:55PM 27.5744 -82.6053 167° South 244 281 14,900  Level Miami Center
01:56PM 27.5103 -82.5903 168° South 239 275 14,900  Level Miami Center
01:57PM 27.4442 -82.5731 167° South 239 275 14,900  Level Miami Center
01:58PM 27.3803 -82.5581 168° South 239 275 14,900  Level Miami Center
01:59PM 27.3161 -82.5433 168° South 239 275 14,900  Level Miami Center
02:00PM 27.2500 -82.5261 167° South 239 275 14,900 -480 Level Miami Center
02:01PM 27.1817 -82.5111 169° South 244 281 14,000 -900 Descending Miami Center
02:02PM 27.1094 -82.4933 168° South 256 295 13,100 -600 Descending Miami Center
02:03PM 27.0392 -82.4736 166° South 262 302 12,800 -300 Descending Miami Center
02:04PM 26.9811 -82.4617 170° South 255 293 12,500 -420 Descending Miami Center
02:05PM 26.9192 -82.4447 166° South 243 280 12,000 -780 Descending Miami Center
02:06PM 26.8511 -82.4275 167° South 238 274 11,000 -1,020 Descending Miami Center
02:07PM 26.7806 -82.4125 169° South 249 287 10,000 -1,080 Descending Miami Center
02:08PM 26.7042 -82.3925 167° South 260 299 8,900 -1,080 Descending Miami Center
02:09PM 26.6339 -82.3753 168° South 260 299 7,900 -960 Descending Miami Center
02:10PM 26.5728 -82.3378 151° Southeast 255 293 7,000 -480 Descending Miami Center
02:11PM 26.5178 -82.3003 149° Southeast 248 285 7,000  Level Miami Center
02:13PM 26.3711 -82.0407 124° Southeast  Level FlightAware Approximate
02:20PM 26.1524 -81.7756 130° Southeast  Level Estimated
02:21PM 26.1524 -81.7756 130° Southeast  Level Estimated
02:22PM 26.1524 -81.7756 130° Southeast  Level Estimated
02:23PM 26.1524 -81.7756 130° Southeast  Level Estimated
02:24PM 26.1524 -81.7756 130° Southeast  Level Estimated
02:25PM 26.1524 -81.7756 130° Southeast  Level Estimated
02:26PM 26.1524 -81.7756 130° Southeast  Level Estimated
02:27PM 26.1524 -81.7756 130° Southeast  Level Estimated
02:28PM 26.1524 -81.7756 130° Southeast  Level Estimated
02:29PM 26.1524 -81.7756 130° Southeast  Level Estimated
02:30PM 26.1524 -81.7756 130° Southeast  Level Estimated
02:31PM 26.1524 -81.7756 130° Southeast  Level Estimated
02:32PM 26.1524 -81.7756 130° Southeast  Level Estimated
02:33PM 26.1524 -81.7756 130° Southeast  Level Estimated